KATY/ATY METAR and TAF weather

Enter ICAO airport designator
Station Type Date Time Source
KATY METAR 2018/04/26 14:53 UTC NOAA

KATY 261453Z AUTO 01029G35KT 10SM CLR 10/M02 A2999 RMK AO2 PK WND 36038/1438 SLP164 T01001017 51034


Station Type Date Time Source
KATY Decoded METAR 2018/04/26 14:53 UTC NOAA

WATERTOWN MUNICIPAL AIRPORT, SD, United States (KATY) 44-54N 097-09W 532M
Apr 26, 2018 - 10:53 AM EDT / 2018.04.26 1453 UTC
Wind: from the N (010 degrees) at 33 MPH (29 KT) gusting to 40 MPH (35 KT):0
Visibility: 10 mile(s):0
Sky conditions: clear
Temperature: 50.0 F (10.0 C)
Dew Point: 28.9 F (-1.7 C)
Relative Humidity: 43%
Pressure (altimeter): 29.99 in. Hg (1015 hPa)
Pressure tendency: 0.10 inches (3.4 hPa) higher than three hours ago
ob: KATY 261453Z AUTO 01029G35KT 10SM CLR 10/M02 A2999 RMK AO2 PK WND 36038/1438 SLP164 T01001017 51034
cycle: 15

Station Type Date Time Source
KATY TAF 2018/04/26 14:36 UTC NOAA

TAF
AMD KATY 261333Z 2614/2712 35018G26KT P6SM SKC
FM262000 34015KT P6SM SCT060
FM270200 30007KT P6SM SKC
FM270600 24006KT P6SM SKC


Example: see airport list